Scf Surgut — A8SW8 — position and weather

sailwx.info

Track history (hours):
 
Tides and Currents Weather Stations Pressure Air Temp Water Temp Dewpoint Dewpoint Depression Visibility Wind Speed Wind Dir Waves Ship Positions

Scf Surgut

Last reported at 2018-Jun-15 06:08 UTC. Time now 2018-Jun-18 23:16 UTC.
Position N 25°25' W 079°37'.

Length 264 m; draft 9.3 m.

Type: Ship. MMSI: 636014310.

Date/timePositionNaut miles runAvg speedWind from/ knotsBaromVisibWave heightAir tempDewpointWater temp
2018-Jun-15 06:08N 25°25' W 079°37'511.9
2018-Jun-15 05:44N 25°29' W 079°36'311.8
2018-Jun-15 05:30N 25°32' W 079°35'611.8
2018-Jun-15 04:59N 25°38' W 079°34'611.8
2018-Jun-15 04:30N 25°43' W 079°32'611.8
2018-Jun-15 04:00N 25°49' W 079°31'611.4
2018-Jun-15 03:30N 25°54' W 079°28'  
2018-Jun-09 00:59N 10°17' W 075°59'912.9
2018-Jun-09 00:19N 10°09' W 075°60'413.2
2018-Jun-09 00:00N 10°04' W 075°60'713.6
2018-Jun-08 23:30N 09°58' W 075°60'2712.1
2018-Jun-08 21:15N 09°32' W 075°50'311.0
2018-Jun-08 20:58N 09°30' W 075°48'2 4.3
2018-Jun-08 20:30N 09°30' W 075°46'0 0.4
2018-Jun-08 20:00N 09°29' W 075°46'0 0.6
2018-Jun-08 19:30N 09°29' W 075°46'0 0.0
2018-Jun-08 02:33N 09°29' W 075°46'0 0.1
2018-Jun-08 02:30N 09°29' W 075°46'0 0.0
2018-Jun-08 01:12N 09°29' W 075°46'0 0.2
2018-Jun-08 01:00N 09°29' W 075°46'0 0.7
2018-Jun-08 00:30N 09°29' W 075°46'1 1.1
2018-Jun-08 00:00N 09°30' W 075°45'2 2.6
2018-Jun-07 23:19N 09°31' W 075°47'2 4.0
2018-Jun-07 22:50N 09°32' W 075°48'  
Track history (hours):
 
Tides and Currents Weather Stations Pressure Air Temp Water Temp Dewpoint Dewpoint Depression Visibility Wind Speed Wind Dir Waves Ship Positions

Scf Surgut

Last reported at 2018-Jun-15 06:08 UTC. Time now 2018-Jun-18 23:16 UTC.
Position N 25°25' W 079°37'.

Length 264 m; draft 9.3 m.

Type: Ship. MMSI: 636014310.

Date/timePositionNaut miles runAvg speedWind from/ knotsBaromVisibWave heightAir tempDewpointWater temp
2018-Jun-15 06:08N 25°25' W 079°37'511.9
2018-Jun-15 05:44N 25°29' W 079°36'311.8
2018-Jun-15 05:30N 25°32' W 079°35'611.8
2018-Jun-15 04:59N 25°38' W 079°34'611.8
2018-Jun-15 04:30N 25°43' W 079°32'611.8
2018-Jun-15 04:00N 25°49' W 079°31'611.4
2018-Jun-15 03:30N 25°54' W 079°28'  
2018-Jun-09 00:59N 10°17' W 075°59'912.9
2018-Jun-09 00:19N 10°09' W 075°60'413.2
2018-Jun-09 00:00N 10°04' W 075°60'713.6
2018-Jun-08 23:30N 09°58' W 075°60'2712.1
2018-Jun-08 21:15N 09°32' W 075°50'311.0
2018-Jun-08 20:58N 09°30' W 075°48'2 4.3
2018-Jun-08 20:30N 09°30' W 075°46'0 0.4
2018-Jun-08 20:00N 09°29' W 075°46'0 0.6
2018-Jun-08 19:30N 09°29' W 075°46'0 0.0
2018-Jun-08 02:33N 09°29' W 075°46'0 0.1
2018-Jun-08 02:30N 09°29' W 075°46'0 0.0
2018-Jun-08 01:12N 09°29' W 075°46'0 0.2
2018-Jun-08 01:00N 09°29' W 075°46'0 0.7
2018-Jun-08 00:30N 09°29' W 075°46'1 1.1
2018-Jun-08 00:00N 09°30' W 075°45'2 2.6
2018-Jun-07 23:19N 09°31' W 075°47'2 4.0
2018-Jun-07 22:50N 09°32' W 075°48'  

Dump ship's entire track history